Eastern Oregon Regional At Pendleton Airport
KPDT : now visible

Airfield :











YOU CAN JOIN US ON...

 
LOGIN :

Register | Disclaimer

   EN    FR    IT 

 









Legend :    VFR   Marginal VFR   IFR   Intensive IFR   Very Intensive IFR
Visi :
Ceiling :
>= 8 km
>= 3000ft
5 to 8 km
1000 to 3000 ft
1500m to 5 km
500 to 1000 ft
800 to 1500m
200 to 500 ft
< 800m
< 200 ft
Symbols :   Thunderstorms  Fog  Heavy snow  Heavy precipitations  Wind > 20 kt







- Airport Elevation : 1497 ft


KPDT - Eastern Oregon Regional At Pendleton

CURRENT METAR :
  • 181153Z AUTO 13008KT 10SM SCT090 11/09 A2981 RMK AO2 SLP085 60001 70001 T01110094 10156 20111 50010

EXPIRED METARs :
  • 181053Z AUTO 00000KT 10SM SCT043 OVC075 12/10 A2981 RMK AO2 RAB01E10B37E46 SLP086 P0000 T01170100
  • 180953Z AUTO 28014KT 10SM OVC055 12/08 A2980 RMK AO2 SLP081 T01220083
  • 180853Z AUTO 24005KT 10SM BKN060 BKN075 13/08 A2978 RMK AO2 SLP072 60001 T01330083 55000

TAF KPDT
Valid from the 18 at 12:00 until the 19 at 12:00 UTC


181120Z 1812/1912 VRB05KT P6SM VCSH SCT045 OVC060
FM181500 14003KT P6SM VCSH SCT050 BKN070
FM181800 29006KT P6SM VCTS SCT060CB BKN080
FM190300 13005KT P6SM SCT050 BKN100
No reported NOTAMs for that airfield.



MET'MAP, your aeronautical weather chart ! - Copyright ORBIFLY December 2007 - Disclaimer

ORBIFLY MET'MAP TEAM :

Programming & Development : Alexandra Zaïnal
Concept & Development : Baudouin d'Aumeries
Co-Development & Prog : Marc-Olivier Méhu
Technical & hardware support : Manuel Goepfert

Contact : metmap@orbifly.com




SOURCES & CREDITS :

   NOAA       Earth
Advisory